Time;durP1;ratioP1;P1;durP2;ratioP2;P2;SDS_P1;SDS_P2;PMS_P1;PMS_P2;Temp;Humidity;BMP_temperature;BMP_pressure;BME280_temperature;BME280_humidity;BME280_pressure;Samples;Min_cycle;Max_cycle;Signal;HPM_P1;HPM_P2
2020/12/02 00:02:25;;;;;;;31.37;13.37;;;2.80;99.90;;;3.69;79.58;101870.75;5073612;28;20259;-76
2020/12/02 00:04:52;;;;;;;33.03;12.80;;;2.80;99.90;;;3.66;79.58;101873.31;5073531;28;20180;-74
2020/12/02 00:07:20;;;;;;;31.90;14.07;;;2.80;99.90;;;3.60;79.60;101873.28;5073563;28;20187;-74
2020/12/02 00:09:47;;;;;;;37.20;13.97;;;2.70;99.90;;;3.54;79.90;101873.22;5072926;28;20212;-74
2020/12/02 00:12:14;;;;;;;34.50;13.83;;;2.70;99.90;;;3.51;80.19;101876.66;5073569;28;20200;-74
2020/12/02 00:14:40;;;;;;;30.80;12.50;;;2.60;99.90;;;3.54;80.12;101873.22;5088708;28;20211;-74
2020/12/02 00:17:16;;;;;;;33.27;12.90;;;2.70;99.90;;;3.54;79.97;101873.22;5105812;28;20546;-74
2020/12/02 00:19:42;;;;;;;30.43;12.57;;;2.70;99.90;;;3.55;80.34;101872.38;5088576;28;20703;-74
2020/12/02 00:22:13;;;;;;;32.50;12.63;;;2.70;99.90;;;3.57;80.12;101874.09;5073074;28;20184;-75
2020/12/02 00:24:39;;;;;;;30.20;12.97;;;2.70;99.90;;;3.57;79.94;101875.81;5088939;28;20203;-74
2020/12/02 00:27:10;;;;;;;35.87;12.43;;;2.70;99.90;;;3.57;80.13;101876.69;5071676;28;20192;-75
2020/12/02 00:29:36;;;;;;;33.03;13.47;;;2.70;99.90;;;3.56;80.07;101874.97;5073007;28;20208;-73
2020/12/02 00:44:22;;;;;;;34.20;11.70;;;2.60;99.90;;;3.51;79.71;101888.69;5072712;28;20669;-74
2020/12/02 00:46:49;;;;;;;27.20;11.43;;;2.60;99.90;;;3.45;79.80;101884.31;5070282;28;20630;-74
2020/12/02 00:49:17;;;;;;;28.23;12.03;;;2.60;99.90;;;3.43;80.07;101883.44;5087706;28;20219;-74
2020/12/02 00:51:44;;;;;;;30.30;12.00;;;2.60;99.90;;;3.46;80.15;101895.56;5088320;28;20192;-74
2020/12/02 00:54:10;;;;;;;32.90;14.43;;;2.50;99.90;;;3.44;80.06;101894.66;5087123;28;20258;-74
2020/12/02 00:56:43;;;;;;;34.47;13.73;;;2.50;99.90;;;3.44;80.14;101894.66;5072783;28;20195;-74
2020/12/02 00:59:20;;;;;;;32.77;13.97;;;2.50;99.90;;;3.47;79.81;101889.50;5088570;28;20291;-75
2020/12/02 01:02:01;;;;;;;34.77;14.27;;;2.50;99.90;;;3.49;79.79;101885.22;5068272;28;20290;-74
2020/12/02 01:04:28;;;;;;;35.10;13.27;;;2.60;99.90;;;3.51;80.06;101887.00;5088344;28;20276;-75
2020/12/02 01:06:57;;;;;;;33.17;14.30;;;2.60;99.90;;;3.53;79.86;101884.41;5072257;28;20199;-74
2020/12/02 01:09:26;;;;;;;30.20;13.47;;;2.60;99.90;;;3.51;80.10;101897.34;5087676;28;20220;-74
2020/12/02 01:11:59;;;;;;;35.40;14.17;;;2.60;99.90;;;3.50;79.76;101885.25;5072240;28;20531;-74
2020/12/02 01:14:26;;;;;;;38.27;15.23;;;2.60;99.90;;;3.51;79.95;101881.81;5071917;28;20206;-74
2020/12/02 01:16:57;;;;;;;33.20;14.07;;;2.60;99.90;;;3.50;79.92;101879.22;5072642;28;20281;-74
2020/12/02 01:19:29;;;;;;;32.17;12.77;;;2.60;99.90;;;3.51;79.88;101886.13;5071842;28;20208;-75
2020/12/02 01:22:01;;;;;;;37.37;14.43;;;2.60;99.90;;;3.51;79.96;101880.94;5070696;28;20213;-75
2020/12/02 01:24:34;;;;;;;35.57;13.33;;;2.60;99.90;;;3.52;80.07;101886.13;5072277;28;20207;-75
2020/12/02 01:27:11;;;;;;;35.90;14.17;;;2.60;99.90;;;3.51;80.03;101884.41;5083437;28;20589;-75
2020/12/02 01:29:39;;;;;;;35.07;13.27;;;2.60;99.90;;;3.51;80.13;101880.94;5067700;28;20214;-75
2020/12/02 01:32:06;;;;;;;33.13;14.00;;;2.70;99.90;;;3.52;80.13;101887.84;5071512;28;20184;-76
2020/12/02 01:34:33;;;;;;;33.13;13.17;;;2.70;99.90;;;3.54;80.17;101893.91;5072017;28;20711;-76
2020/12/02 01:37:22;;;;;;;31.83;14.00;;;2.70;99.90;;;3.53;80.03;101890.44;5072322;28;20184;-74
2020/12/02 01:40:02;;;;;;;31.73;12.87;;;2.70;99.90;;;3.53;80.06;101903.38;5067617;28;20211;-75
2020/12/02 01:42:28;;;;;;;34.93;14.07;;;2.70;99.90;;;3.51;80.00;101893.88;5072240;28;20188;-74
2020/12/02 01:44:55;;;;;;;37.97;14.67;;;2.70;99.90;;;3.50;79.97;101894.75;5071305;28;20196;-76
2020/12/02 01:47:43;;;;;;;32.60;13.47;;;2.60;99.90;;;3.45;79.94;101888.66;5070270;28;20575;-75
2020/12/02 01:50:19;;;;;;;33.30;12.83;;;2.60;99.90;;;3.44;80.28;101892.94;5071034;28;20216;-75
2020/12/02 01:53:02;;;;;;;37.77;13.70;;;2.60;99.90;;;3.45;79.89;101880.91;5079165;28;20195;-75
2020/12/02 01:55:36;;;;;;;32.97;13.60;;;2.60;99.90;;;3.46;79.95;101882.63;5083015;28;20231;-75
2020/12/02 01:58:15;;;;;;;33.67;13.10;;;2.60;99.90;;;3.44;79.90;101886.91;5072211;28;20625;-74
2020/12/02 02:00:50;;;;;;;37.17;14.13;;;2.60;99.90;;;3.43;80.05;101892.94;5072087;28;20238;-74
2020/12/02 02:03:19;;;;;;;36.90;14.13;;;2.60;99.90;;;3.41;80.21;101892.06;5071240;28;20196;-74
2020/12/02 02:05:55;;;;;;;33.17;13.17;;;2.60;99.90;;;3.38;79.86;101889.44;5071627;28;20295;-74
2020/12/02 02:08:26;;;;;;;34.10;12.93;;;2.50;99.90;;;3.37;79.99;101882.50;5086974;28;20249;-74
2020/12/02 02:10:55;;;;;;;39.67;14.73;;;2.50;99.90;;;3.37;79.99;101885.09;5086246;28;20234;-75
2020/12/02 02:13:56;;;;;;;37.67;14.47;;;2.50;99.90;;;3.38;79.86;101879.09;5087701;28;20188;-74
2020/12/02 02:16:27;;;;;;;33.97;13.47;;;2.50;99.90;;;3.37;79.99;101888.56;5072578;28;20183;-74
2020/12/02 02:18:55;;;;;;;32.40;12.93;;;2.50;99.90;;;3.34;80.16;101879.91;5075830;28;20207;-75
2020/12/02 02:21:26;;;;;;;34.10;13.93;;;2.50;99.90;;;3.35;80.16;101881.66;5094064;28;20226;-74
2020/12/02 02:23:53;;;;;;;36.83;14.43;;;2.50;99.90;;;3.34;80.19;101888.53;5086490;28;20187;-75
2020/12/02 02:26:33;;;;;;;37.20;14.40;;;2.50;99.90;;;3.33;80.25;101885.94;5081832;28;20188;-75
2020/12/02 02:29:10;;;;;;;37.73;14.80;;;2.40;99.90;;;3.29;80.35;101871.22;5074792;28;20192;-74
2020/12/02 02:31:44;;;;;;;37.80;14.27;;;2.40;99.90;;;3.26;80.54;101879.84;5075469;28;20195;-74
2020/12/02 02:34:14;;;;;;;33.60;13.27;;;2.40;99.90;;;3.26;80.37;101876.38;5074100;28;20215;-73
2020/12/02 02:36:41;;;;;;;35.17;13.13;;;2.40;99.90;;;3.23;80.73;101876.34;5074806;28;20192;-74
2020/12/02 02:39:10;;;;;;;35.77;14.00;;;2.30;99.90;;;3.23;80.80;101873.75;5054939;28;20192;-74
2020/12/02 02:41:37;;;;;;;36.43;15.17;;;2.30;99.90;;;3.21;80.72;101878.03;5055389;28;20177;-74
2020/12/02 02:44:04;;;;;;;37.17;13.30;;;2.30;99.90;;;3.22;80.61;101872.00;5055185;28;20211;-74
2020/12/02 02:46:30;;;;;;;34.33;14.10;;;2.30;99.90;;;3.22;81.13;101875.47;5053930;28;20197;-73
2020/12/02 02:48:57;;;;;;;39.20;15.17;;;2.30;99.90;;;3.23;80.62;101868.59;5072174;28;20196;-75
2020/12/02 02:51:23;;;;;;;34.80;12.80;;;2.20;99.90;;;3.22;80.57;101875.47;5090188;28;20690;-75
2020/12/02 02:53:51;;;;;;;38.03;13.57;;;2.20;99.90;;;3.20;80.67;101865.97;5074542;28;20276;-75
2020/12/02 02:56:17;;;;;;;32.23;13.27;;;2.20;99.90;;;3.21;80.91;101865.09;5090004;28;20192;-72
2020/12/02 02:58:45;;;;;;;34.93;14.27;;;2.30;99.90;;;3.23;80.90;101873.75;5089564;28;20188;-75
2020/12/02 03:01:12;;;;;;;35.40;13.43;;;2.20;99.90;;;3.21;81.06;101875.44;5074273;28;20680;-75
2020/12/02 03:03:38;;;;;;;35.73;12.87;;;2.30;99.90;;;3.22;81.08;101878.06;5073272;28;20191;-75
2020/12/02 03:06:07;;;;;;;38.80;14.87;;;2.30;99.90;;;3.22;80.98;101874.59;5073238;28;20211;-74
2020/12/02 03:08:34;;;;;;;33.73;13.30;;;2.30;99.90;;;3.19;81.32;101877.16;5074092;28;20204;-74
2020/12/02 03:11:04;;;;;;;33.67;13.73;;;2.30;99.90;;;3.15;81.39;101880.56;5074157;28;20204;-74
2020/12/02 03:13:38;;;;;;;34.87;15.03;;;2.30;99.90;;;3.12;81.27;101870.16;5072623;28;20319;-75
2020/12/02 03:16:14;;;;;;;33.90;13.33;;;2.30;99.90;;;3.10;81.51;101872.72;5089610;28;20196;-75
2020/12/02 03:18:41;;;;;;;37.70;14.07;;;2.20;99.90;;;3.09;81.42;101871.00;5072242;28;20199;-74
2020/12/02 03:21:14;;;;;;;37.20;13.40;;;2.20;99.90;;;3.10;81.88;101872.72;5073925;28;20215;-74
2020/12/02 03:23:40;;;;;;;35.57;13.27;;;2.20;99.90;;;3.11;81.82;101876.19;5072724;28;20224;-74
2020/12/02 03:26:09;;;;;;;33.50;13.60;;;2.20;99.90;;;3.08;82.08;101877.00;5073889;28;20207;-75
2020/12/02 03:28:36;;;;;;;31.20;12.63;;;2.20;99.90;;;3.08;81.86;101874.44;5070845;28;20184;-75
2020/12/02 03:31:10;;;;;;;34.10;12.33;;;2.20;99.90;;;3.10;81.97;101870.16;5072298;28;20208;-74
2020/12/02 03:33:37;;;;;;;33.73;13.50;;;2.20;99.90;;;3.11;82.09;101861.56;5073747;28;20692;-75
2020/12/02 03:36:03;;;;;;;36.13;13.67;;;2.20;99.90;;;3.10;81.88;101866.72;5089234;28;20200;-75
2020/12/02 03:38:30;;;;;;;39.00;13.37;;;2.20;99.90;;;3.07;82.11;101858.91;5073385;28;20183;-75
2020/12/02 03:40:57;;;;;;;36.17;13.50;;;2.10;99.90;;;3.07;82.13;101856.31;5089198;28;20216;-75
2020/12/02 03:43:24;;;;;;;37.07;13.37;;;2.10;99.90;;;3.05;82.30;101863.22;5088941;28;20207;-74
2020/12/02 03:45:50;;;;;;;34.73;13.60;;;2.20;99.90;;;3.01;82.61;101857.13;5072168;28;20188;-73
2020/12/02 03:48:19;;;;;;;34.20;13.33;;;2.10;99.90;;;3.01;82.77;101851.09;5072042;28;20196;-75
2020/12/02 03:50:47;;;;;;;37.97;13.60;;;2.10;99.90;;;2.98;82.63;101851.06;5073336;28;20208;-74
2020/12/02 03:53:17;;;;;;;36.07;13.57;;;2.10;99.90;;;2.94;82.88;101850.16;5088687;28;20656;-75
2020/12/02 03:55:44;;;;;;;34.70;13.83;;;2.10;99.90;;;2.87;83.02;101847.47;5071920;28;20224;-75
2020/12/02 03:58:11;;;;;;;38.93;13.57;;;2.00;99.90;;;2.80;83.40;101846.53;5072889;28;20199;-74
2020/12/02 04:00:37;;;;;;;35.03;13.43;;;2.00;99.90;;;2.79;83.79;101843.94;5073087;28;20575;-73
2020/12/02 04:03:04;;;;;;;32.37;13.57;;;1.90;99.90;;;2.80;83.69;101846.53;5072918;28;20669;-75
2020/12/02 04:05:31;;;;;;;38.00;13.93;;;1.90;99.90;;;2.82;83.71;101843.97;5073099;28;20188;-75
2020/12/02 04:07:57;;;;;;;35.27;14.10;;;1.90;99.90;;;2.83;83.82;101846.56;5073153;28;20184;-75
2020/12/02 04:10:24;;;;;;;35.50;13.87;;;1.90;99.90;;;2.83;83.60;101848.31;5072862;28;20215;-75
2020/12/02 04:12:50;;;;;;;34.80;14.40;;;1.90;99.90;;;2.83;83.80;101846.56;5072986;28;20188;-75
2020/12/02 04:15:20;;;;;;;33.20;13.43;;;1.90;99.90;;;2.83;83.97;101843.97;5072883;28;20208;-75
2020/12/02 04:17:48;;;;;;;33.87;13.17;;;1.90;99.90;;;2.83;83.87;101841.41;5071099;28;20291;-75
2020/12/02 04:20:17;;;;;;;39.50;13.97;;;2.00;99.90;;;2.83;83.75;101843.13;5071390;28;20235;-75
2020/12/02 04:22:46;;;;;;;37.20;14.47;;;2.00;99.90;;;2.82;83.77;101843.97;5072863;28;20207;-73
2020/12/02 04:25:13;;;;;;;35.60;13.90;;;1.90;99.90;;;2.85;83.72;101839.69;5072880;28;20207;-75
2020/12/02 04:27:40;;;;;;;37.40;14.30;;;2.00;99.90;;;2.83;83.58;101837.97;5088226;28;20192;-74
2020/12/02 04:30:07;;;;;;;40.97;14.63;;;2.00;99.90;;;2.82;83.54;101833.63;5087907;28;20581;-74
2020/12/02 04:32:34;;;;;;;37.40;14.23;;;1.90;99.90;;;2.81;83.53;101837.94;5071245;28;20192;-73
2020/12/02 04:35:02;;;;;;;36.37;13.20;;;1.90;99.90;;;2.81;83.54;101831.91;5072474;28;20231;-74
2020/12/02 04:37:30;;;;;;;35.10;13.90;;;1.90;99.90;;;2.81;83.72;101830.19;5072501;28;20184;-74
2020/12/02 04:39:58;;;;;;;34.53;14.20;;;1.90;99.90;;;2.82;83.70;101828.47;5087168;28;20749;-75
2020/12/02 04:42:30;;;;;;;38.83;14.80;;;1.90;99.90;;;2.81;83.68;101831.91;5072582;28;20192;-75
2020/12/02 04:44:58;;;;;;;36.77;13.43;;;1.90;99.90;;;2.81;83.61;101842.25;5072386;28;20195;-75
2020/12/02 04:47:32;;;;;;;40.13;14.47;;;1.90;99.90;;;2.80;83.57;101838.78;5072091;28;20207;-74
2020/12/02 04:49:59;;;;;;;38.80;14.77;;;1.90;99.90;;;2.82;83.71;101837.09;5070897;28;20660;-75
2020/12/02 04:52:26;;;;;;;42.97;14.73;;;2.00;99.90;;;2.85;83.49;101841.44;5071740;28;20679;-74
2020/12/02 04:54:52;;;;;;;41.27;14.60;;;2.00;99.90;;;2.87;83.53;101826.78;5072103;28;20714;-75
2020/12/02 04:57:19;;;;;;;35.73;13.90;;;2.00;99.90;;;2.87;83.27;101831.97;5070715;28;20188;-75
2020/12/02 04:59:45;;;;;;;39.77;12.83;;;2.00;99.90;;;2.85;83.42;101838.84;5070355;28;20223;-75
2020/12/02 05:02:26;;;;;;;33.70;13.13;;;2.00;99.90;;;2.84;83.42;101832.81;5071640;28;20198;-74
2020/12/02 05:04:58;;;;;;;35.67;14.20;;;2.00;99.90;;;2.83;83.54;101833.63;5070431;28;20663;-74
2020/12/02 05:07:28;;;;;;;40.93;14.87;;;2.00;99.90;;;2.86;83.44;101832.81;5087293;28;20295;-74
2020/12/02 05:10:00;;;;;;;38.47;14.63;;;2.00;99.90;;;2.87;83.19;101831.97;5071468;28;20211;-74
2020/12/02 05:12:33;;;;;;;34.53;13.40;;;2.00;99.90;;;2.84;83.36;101837.09;5072067;28;20608;-75
2020/12/02 05:15:16;;;;;;;41.57;15.97;;;2.00;99.90;;;2.83;83.28;101840.56;5070498;28;20231;-75
2020/12/02 05:17:43;;;;;;;36.03;13.00;;;2.00;99.90;;;2.85;83.36;101833.69;5071628;28;20313;-75
2020/12/02 05:20:13;;;;;;;38.30;13.73;;;2.10;99.90;;;2.83;83.54;101825.88;5071250;28;20589;-74
2020/12/02 05:22:42;;;;;;;37.07;14.03;;;2.00;99.90;;;2.82;83.33;101828.47;5087411;28;20192;-74
2020/12/02 05:25:18;;;;;;;36.63;13.70;;;2.00;99.90;;;2.82;83.28;101823.28;5072265;28;20184;-74
2020/12/02 05:27:55;;;;;;;34.53;13.80;;;2.00;99.90;;;2.81;83.30;101825.03;5075416;28;20334;-75
2020/12/02 05:30:29;;;;;;;35.30;12.90;;;2.00;99.90;;;2.81;83.14;101824.16;5079713;28;20216;-73
2020/12/02 05:33:13;;;;;;;35.50;14.47;;;2.00;99.90;;;2.82;83.20;101818.13;5100482;28;20192;-74
2020/12/02 05:35:44;;;;;;;41.37;13.37;;;2.00;99.90;;;2.82;83.05;101815.53;5074766;28;20691;-74
2020/12/02 05:38:18;;;;;;;45.17;14.70;;;2.00;99.90;;;2.83;82.93;101817.28;5069955;28;20191;-75
2020/12/02 05:40:45;;;;;;;39.03;14.77;;;2.00;99.90;;;2.79;82.81;101811.22;5069991;28;20216;-74
2020/12/02 05:43:23;;;;;;;41.60;15.40;;;2.00;99.90;;;2.77;82.82;101809.44;5086856;28;20196;-74
2020/12/02 05:45:53;;;;;;;37.57;13.40;;;1.90;99.90;;;2.74;83.07;101814.59;5069901;28;20747;-74
2020/12/02 05:48:41;;;;;;;43.23;15.53;;;1.90;99.90;;;2.73;83.00;101812.88;5069699;28;20211;-74
2020/12/02 05:51:16;;;;;;;37.03;13.90;;;1.90;99.90;;;2.75;83.14;101812.03;5088295;28;20208;-73
2020/12/02 05:53:52;;;;;;;43.67;15.43;;;1.90;99.90;;;2.77;83.22;101812.03;5080815;28;20179;-74
2020/12/02 05:56:18;;;;;;;38.23;14.17;;;1.90;99.90;;;2.73;83.12;101807.69;5082992;28;20188;-74
2020/12/02 05:58:46;;;;;;;37.87;14.80;;;1.90;99.90;;;2.76;83.05;101811.19;5071271;28;20196;-75
2020/12/02 06:01:16;;;;;;;35.73;14.10;;;1.90;99.90;;;2.75;83.01;101812.03;5070525;28;20616;-74
2020/12/02 06:03:50;;;;;;;33.67;14.47;;;1.90;99.90;;;2.76;83.10;101808.59;5070071;28;20211;-75
2020/12/02 06:06:17;;;;;;;38.80;14.77;;;1.90;99.90;;;2.75;82.69;101814.59;5071135;28;20644;-75
2020/12/02 06:08:46;;;;;;;34.60;13.77;;;1.90;99.90;;;2.73;82.68;101807.69;5070857;28;20676;-75
2020/12/02 06:11:33;;;;;;;41.13;14.50;;;1.90;99.90;;;2.70;83.03;101807.69;5069667;28;20212;-76
2020/12/02 06:14:09;;;;;;;42.00;15.30;;;1.80;99.90;;;2.67;82.72;101803.31;5069831;28;20199;-75
2020/12/02 06:16:44;;;;;;;43.53;14.73;;;1.80;99.90;;;2.65;83.17;101809.34;5086518;28;20282;-73
2020/12/02 06:19:29;;;;;;;40.87;15.20;;;1.80;99.90;;;2.65;83.39;101817.94;5070723;28;20183;-74
2020/12/02 06:21:58;;;;;;;37.73;13.87;;;1.80;99.90;;;2.65;83.03;101806.75;5071251;28;20168;-75
2020/12/02 06:24:39;;;;;;;38.83;14.00;;;1.80;99.90;;;2.64;83.08;101805.88;5086476;28;20210;-73
2020/12/02 06:27:40;;;;;;;39.60;14.00;;;1.80;99.90;;;2.64;83.24;101812.75;5070929;28;20659;-74
2020/12/02 06:30:18;;;;;;;44.03;15.03;;;1.80;99.90;;;2.63;83.12;101811.88;5085599;28;20306;-74
2020/12/02 06:33:17;;;;;;;43.40;13.77;;;1.80;99.90;;;2.64;83.04;101811.03;5071115;28;20584;-75
2020/12/02 06:35:43;;;;;;;40.50;14.00;;;1.80;99.90;;;2.65;83.12;101819.66;5068234;28;20636;-74
2020/12/02 06:38:23;;;;;;;37.30;15.30;;;1.80;99.90;;;2.63;83.15;101816.19;5086205;28;20188;-75
2020/12/02 06:41:27;;;;;;;40.67;14.53;;;1.80;99.90;;;2.63;83.07;101811.03;5069561;28;20345;-74
2020/12/02 06:44:11;;;;;;;39.07;14.33;;;1.80;99.90;;;2.61;83.49;101807.56;5009477;28;20285;-75
2020/12/02 06:47:12;;;;;;;34.77;14.13;;;1.80;99.90;;;2.63;83.29;101811.03;5063201;28;20219;-74
2020/12/02 06:49:39;;;;;;;42.13;14.57;;;1.80;99.90;;;2.62;83.36;101810.16;5085788;28;20560;-75
2020/12/02 06:52:10;;;;;;;39.20;13.13;;;1.80;99.90;;;2.60;83.24;101809.25;5085983;28;20220;-75
2020/12/02 06:54:40;;;;;;;35.40;13.67;;;1.80;99.90;;;2.62;83.65;101804.09;5070572;28;20203;-75
2020/12/02 06:57:21;;;;;;;44.00;15.67;;;1.80;99.90;;;2.64;83.70;101797.25;5070836;28;20189;-74
2020/12/02 06:59:50;;;;;;;37.63;13.63;;;1.80;99.90;;;2.66;83.78;101798.13;5050528;28;20213;-75
2020/12/02 07:02:39;;;;;;;36.60;14.20;;;1.90;99.90;;;2.65;83.52;101797.25;5050973;28;20193;-75
2020/12/02 07:05:12;;;;;;;41.63;14.40;;;1.80;99.90;;;2.64;83.49;101797.25;5054146;28;20196;-73
2020/12/02 07:07:38;;;;;;;45.77;17.00;;;1.80;99.90;;;2.62;83.32;101793.78;5052897;28;20199;-74
2020/12/02 07:10:14;;;;;;;44.47;16.10;;;1.70;99.90;;;2.61;83.48;101802.38;5055297;28;20205;-74
2020/12/02 07:12:40;;;;;;;45.77;16.10;;;1.70;99.90;;;2.62;83.88;101801.53;5069406;28;20279;-74
2020/12/02 07:15:06;;;;;;;41.23;14.73;;;1.70;99.90;;;2.64;83.78;101799.81;5052916;28;20224;-74
2020/12/02 07:17:33;;;;;;;41.90;17.13;;;1.80;99.90;;;2.65;83.96;101805.00;5069719;28;20582;-74
2020/12/02 07:20:05;;;;;;;41.17;15.97;;;1.80;99.90;;;2.69;83.79;101801.63;5053747;28;20212;-74
2020/12/02 07:22:37;;;;;;;43.67;16.17;;;1.90;99.90;;;2.70;83.87;101803.34;5054354;28;20185;-74
2020/12/02 07:25:09;;;;;;;44.60;15.93;;;1.90;99.90;;;2.72;83.75;101803.38;5053937;28;20601;-74
2020/12/02 07:27:42;;;;;;;41.83;16.07;;;1.90;99.90;;;2.73;83.67;101805.13;5055882;28;20211;-75
2020/12/02 07:30:20;;;;;;;44.70;16.33;;;1.90;99.90;;;2.71;83.72;101799.94;5065397;28;20204;-74
2020/12/02 07:32:47;;;;;;;43.40;15.47;;;1.90;99.90;;;2.71;83.93;101801.66;5072581;28;20564;-74
2020/12/02 07:35:17;;;;;;;39.40;15.43;;;1.90;99.90;;;2.73;83.90;101795.63;5073558;28;20684;-74
2020/12/02 07:37:44;;;;;;;48.07;16.77;;;1.90;99.90;;;2.78;83.83;101790.53;5072591;28;20207;-74
2020/12/02 07:40:30;;;;;;;45.07;16.03;;;2.00;99.90;;;2.81;83.69;101791.44;5072112;28;20680;-74
2020/12/02 07:43:00;;;;;;;48.20;16.47;;;2.00;99.90;;;2.80;83.44;101794.00;5073695;28;20486;-74
2020/12/02 07:45:30;;;;;;;47.30;16.10;;;2.00;99.90;;;2.81;83.51;101798.31;5089235;28;20203;-74
2020/12/02 07:48:04;;;;;;;38.60;15.73;;;2.00;99.90;;;2.82;83.55;101797.44;5089004;28;20204;-75
2020/12/02 07:50:35;;;;;;;41.57;15.93;;;2.00;99.90;;;2.84;83.20;101801.81;5073227;28;20211;-74
2020/12/02 07:53:13;;;;;;;42.87;16.40;;;2.00;99.90;;;2.85;83.07;101788.03;5071828;28;20199;-73
2020/12/02 07:55:45;;;;;;;41.27;16.10;;;2.00;99.90;;;2.88;83.13;101792.38;5071964;28;20216;-74
2020/12/02 07:58:16;;;;;;;46.73;16.67;;;2.00;99.90;;;2.93;83.04;101794.13;5073109;28;20191;-74
2020/12/02 08:00:44;;;;;;;46.57;16.53;;;2.10;99.90;;;2.96;82.91;101790.72;5088729;28;20219;-74
2020/12/02 08:03:34;;;;;;;46.03;16.47;;;2.10;99.90;;;2.93;82.82;101790.72;5072065;28;20282;-74
2020/12/02 08:06:15;;;;;;;49.90;16.97;;;2.10;99.90;;;2.93;83.34;101801.03;5088970;28;20192;-74
2020/12/02 08:08:41;;;;;;;43.27;15.93;;;2.20;99.90;;;2.96;83.16;101798.50;5071780;28;20192;-74
2020/12/02 08:11:14;;;;;;;46.80;15.70;;;2.20;99.90;;;3.04;83.34;101791.66;5071634;28;20208;-74
2020/12/02 08:13:49;;;;;;;41.33;15.73;;;2.30;99.90;;;3.13;82.96;101791.78;5071377;28;20184;-75
2020/12/02 08:16:29;;;;;;;44.73;15.93;;;2.40;99.90;;;3.19;82.73;101797.00;5072920;28;20212;-75
2020/12/02 08:18:57;;;;;;;48.63;17.00;;;2.40;99.90;;;3.26;82.79;101796.22;5072921;28;20202;-75
2020/12/02 08:21:28;;;;;;;40.13;16.13;;;2.50;99.90;;;3.29;82.47;101798.81;5071447;28;20260;-74
2020/12/02 08:24:20;;;;;;;49.27;17.37;;;2.50;99.90;;;3.30;82.34;101790.22;5088601;28;20192;-74
2020/12/02 08:26:51;;;;;;;41.70;17.10;;;2.60;99.90;;;3.32;82.03;101788.50;5088302;28;20637;-74
2020/12/02 08:29:23;;;;;;;52.07;18.73;;;2.50;99.90;;;3.34;82.21;101781.63;5087931;28;20206;-75
2020/12/02 08:32:03;;;;;;;48.20;18.20;;;2.60;99.90;;;3.35;82.06;101778.22;5071306;28;20567;-74
2020/12/02 08:34:33;;;;;;;54.93;18.37;;;2.60;99.90;;;3.36;82.01;101780.81;5071737;28;20215;-74
2020/12/02 08:37:36;;;;;;;43.77;16.40;;;2.60;99.90;;;3.36;81.85;101782.50;5093440;28;20652;-74
2020/12/02 08:40:39;;;;;;;48.97;17.73;;;2.60;99.90;;;3.37;81.57;101773.88;5083110;28;20214;-74
2020/12/02 08:43:31;;;;;;;47.43;17.07;;;2.60;99.90;;;3.43;81.53;101766.19;5085941;28;20196;-74
2020/12/02 08:46:12;;;;;;;48.63;16.97;;;2.70;99.90;;;3.40;81.21;101758.44;5073328;28;20222;-73
2020/12/02 08:48:41;;;;;;;44.33;17.70;;;2.70;99.90;;;3.37;80.61;101759.25;5072041;28;20183;-73
2020/12/02 08:51:11;;;;;;;44.90;17.30;;;2.60;99.90;;;3.41;81.12;101763.59;5072127;28;20204;-75
2020/12/02 08:53:37;;;;;;;47.90;17.60;;;2.70;99.90;;;3.44;81.15;101758.44;5071966;28;20176;-74
2020/12/02 08:56:05;;;;;;;46.63;18.50;;;2.70;99.90;;;3.51;81.13;101765.41;5071870;28;20243;-73
2020/12/02 08:58:32;;;;;;;48.73;19.27;;;2.80;99.90;;;3.55;81.09;101763.72;5087220;28;20184;-74
2020/12/02 09:00:59;;;;;;;45.73;18.20;;;2.80;99.90;;;3.61;81.34;101758.59;5070564;28;20212;-74
2020/12/02 09:03:25;;;;;;;48.00;17.93;;;2.90;99.90;;;3.65;81.37;101757.75;5070771;28;20192;-75
2020/12/02 09:05:52;;;;;;;50.20;19.03;;;3.00;99.90;;;3.64;80.76;101756.00;5071895;28;20199;-75
2020/12/02 09:08:19;;;;;;;49.33;18.23;;;3.00;99.90;;;3.67;81.06;101756.03;5071760;28;20192;-74
2020/12/02 09:10:46;;;;;;;49.27;19.63;;;3.00;99.90;;;3.70;80.70;101753.50;5070260;28;20699;-74
2020/12/02 09:13:13;;;;;;;55.17;19.70;;;3.00;99.90;;;3.69;80.44;101749.16;5071808;28;20184;-75
2020/12/02 09:15:40;;;;;;;57.50;19.77;;;3.00;99.90;;;3.72;80.40;101757.81;5071920;28;20219;-74
2020/12/02 09:18:07;;;;;;;47.00;19.00;;;3.00;99.90;;;3.77;80.59;101748.34;5070229;28;20249;-75
2020/12/02 09:20:33;;;;;;;56.03;19.60;;;3.10;99.90;;;3.77;80.29;101747.47;5070324;28;20227;-74
2020/12/02 09:22:59;;;;;;;49.08;19.77;;;3.10;99.90;;;3.79;80.21;101749.22;5070243;28;20203;-75
2020/12/02 09:25:26;;;;;;;51.20;20.57;;;3.10;99.90;;;3.80;80.28;101755.28;5071839;28;20191;-74
2020/12/02 09:27:52;;;;;;;54.03;20.80;;;3.10;99.90;;;3.81;79.80;101729.41;5068190;28;20192;-75
2020/12/02 09:30:18;;;;;;;52.97;20.60;;;3.10;99.90;;;3.88;79.94;101737.19;5070328;28;20243;-74
2020/12/02 09:32:45;;;;;;;53.15;20.42;;;3.20;99.90;;;3.91;79.94;101738.09;5070695;28;20203;-75
2020/12/02 09:35:12;;;;;;;58.03;19.73;;;3.20;99.90;;;3.96;79.95;101726.03;5086977;28;20211;-75
2020/12/02 09:37:38;;;;;;;48.37;19.77;;;3.30;99.90;;;3.95;79.83;101723.44;5071340;28;20184;-74
2020/12/02 09:40:11;;;;;;;52.97;21.07;;;3.30;99.90;;;3.94;79.72;101722.56;5071162;28;20204;-75
2020/12/02 09:43:32;;;;;;;52.93;20.43;;;3.30;99.90;;;3.93;79.78;101723.44;5071416;28;20267;-74
2020/12/02 09:46:07;;;;;;;54.20;19.63;;;3.30;99.90;;;3.93;79.48;101715.66;5035223;28;20207;-74
2020/12/02 09:48:34;;;;;;;49.20;18.92;;;3.30;99.90;;;3.97;79.72;101711.38;5071365;28;20191;-74
2020/12/02 09:51:17;;;;;;;53.23;20.93;;;3.30;99.90;;;4.01;79.55;101715.69;5091344;28;20212;-74
2020/12/02 09:53:44;;;;;;;54.40;19.03;;;3.40;99.90;;;4.02;79.54;101718.28;5078865;28;20184;-74
2020/12/02 09:56:11;;;;;;;53.40;19.63;;;3.30;99.90;;;4.01;79.14;101708.81;5072007;28;20220;-74
2020/12/02 09:58:39;;;;;;;51.38;20.30;;;3.30;99.90;;;4.04;79.68;101711.41;5071168;28;20670;-74
2020/12/02 10:01:15;;;;;;;58.03;20.90;;;3.40;99.90;;;4.05;79.91;101709.69;5071638;28;20223;-75
2020/12/02 10:04:34;;;;;;;59.53;21.20;;;3.40;99.90;;;4.04;79.84;101707.94;5071463;28;20242;-74
2020/12/02 10:07:20;;;;;;;59.43;21.70;;;3.40;99.90;;;4.04;79.63;101703.63;5069939;28;20564;-74
2020/12/02 10:10:28;;;;;;;54.30;20.80;;;3.40;99.90;;;4.04;79.65;101706.22;5071094;28;20687;-75
2020/12/02 10:13:19;;;;;;;48.40;19.20;;;3.40;99.90;;;4.02;79.29;101699.31;5086795;28;20192;-74
2020/12/02 10:15:56;;;;;;;49.90;19.93;;;3.30;99.90;;;4.01;79.73;101698.44;5070939;28;20211;-75
2020/12/02 10:18:55;;;;;;;57.25;21.38;;;3.40;99.90;;;3.96;79.42;101692.38;5069934;28;20652;-74
2020/12/02 10:21:43;;;;;;;53.13;20.37;;;3.30;99.90;;;3.88;79.82;101688.03;5071178;28;20200;-75
2020/12/02 10:24:28;;;;;;;53.45;19.42;;;3.20;99.90;;;3.86;79.92;101680.25;5063203;28;20180;-74
2020/12/02 10:27:21;;;;;;;53.50;19.73;;;3.20;99.90;;;3.88;79.92;101681.13;5069698;28;20202;-75
2020/12/02 10:30:11;;;;;;;57.13;21.50;;;3.30;99.90;;;3.94;79.80;101675.09;5069549;28;20696;-75
2020/12/02 10:32:58;;;;;;;58.57;21.50;;;3.40;99.90;;;3.96;79.45;101671.66;5071258;28;20318;-74
2020/12/02 10:35:26;;;;;;;57.00;19.87;;;3.30;99.90;;;3.99;79.34;101674.28;5069535;28;20218;-74
2020/12/02 10:37:59;;;;;;;52.37;20.27;;;3.40;99.90;;;3.97;79.11;101659.59;5072392;28;20184;-75
2020/12/02 10:40:35;;;;;;;53.33;21.50;;;3.40;99.90;;;3.95;78.99;101661.31;5074599;28;20204;-75
2020/12/02 10:43:10;;;;;;;52.37;20.63;;;3.30;99.90;;;3.98;78.82;101656.16;5090564;28;20568;-74
2020/12/02 10:45:36;;;;;;;54.70;21.23;;;3.40;99.90;;;4.01;79.03;101645.78;5073431;28;20199;-74
2020/12/02 10:48:33;;;;;;;51.87;22.07;;;3.30;99.90;;;4.04;78.65;101644.09;5074906;28;20195;-73
2020/12/02 10:51:02;;;;;;;57.63;23.03;;;3.40;99.90;;;4.01;78.67;101635.44;5074014;28;20255;-74